Time;durP1;ratioP1;P1;durP2;ratioP2;P2;SDS_P1;SDS_P2;PMS_P1;PMS_P2;Temp;Humidity;BMP_temperature;BMP_pressure;BME280_temperature;BME280_humidity;BME280_pressure;Samples;Min_cycle;Max_cycle;Signal;HPM_P1;HPM_P2
2022/07/18 04:00:41;;;;;;;4.90;4.50;;;14.40;99.90;;;;;;5862152;23;20500;-66
2022/07/18 04:03:07;;;;;;;4.40;4.10;;;14.50;99.90;;;;;;5003738;28;20806;-68
2022/07/18 04:05:34;;;;;;;5.27;4.97;;;14.50;99.90;;;;;;5004450;28;20832;-66
2022/07/18 04:08:01;;;;;;;5.20;4.83;;;14.50;99.90;;;;;;5007352;28;20826;-68
2022/07/18 04:10:28;;;;;;;4.83;4.53;;;14.50;99.90;;;;;;5006070;28;20510;-68
2022/07/18 04:12:56;;;;;;;4.97;4.67;;;14.50;99.90;;;;;;4990768;28;20473;-68
2022/07/18 04:15:24;;;;;;;5.60;5.20;;;14.50;99.90;;;;;;4985904;28;20628;-67
2022/07/18 04:17:53;;;;;;;5.00;4.70;;;14.50;99.90;;;;;;4988140;28;20511;-66
2022/07/18 04:20:21;;;;;;;4.33;4.13;;;14.50;99.90;;;;;;4989745;28;20518;-66
2022/07/18 04:22:50;;;;;;;4.50;4.30;;;14.50;99.90;;;;;;4978529;28;20517;-66
2022/07/18 04:25:18;;;;;;;4.47;4.17;;;14.60;99.90;;;;;;4986730;28;20474;-68
2022/07/18 04:27:45;;;;;;;4.93;4.53;;;14.60;99.90;;;;;;4994608;28;20462;-66
2022/07/18 04:30:12;;;;;;;5.50;5.10;;;14.70;99.90;;;;;;4994322;28;20484;-67
2022/07/18 04:32:39;;;;;;;4.90;4.60;;;14.80;99.90;;;;;;4993402;28;20491;-68
2022/07/18 04:35:09;;;;;;;4.80;4.53;;;15.10;99.90;;;;;;4993405;28;20505;-65
2022/07/18 04:37:36;;;;;;;4.90;4.60;;;15.60;99.90;;;;;;4991778;28;20856;-67
2022/07/18 04:40:04;;;;;;;4.77;4.30;;;16.20;99.90;;;;;;4994140;28;20469;-67
2022/07/18 04:42:31;;;;;;;3.53;3.53;;;16.80;99.90;;;;;;4994131;28;20485;-68
2022/07/18 04:44:58;;;;;;;3.70;3.60;;;17.20;99.90;;;;;;4993764;28;20933;-67
2022/07/18 04:47:24;;;;;;;3.93;3.73;;;17.70;99.90;;;;;;4989837;28;20961;-67
2022/07/18 04:49:51;;;;;;;3.57;3.33;;;17.90;99.90;;;;;;4988924;28;20867;-68
2022/07/18 04:52:19;;;;;;;4.43;3.57;;;18.10;99.90;;;;;;4990147;28;20493;-67
2022/07/18 04:54:46;;;;;;;4.67;4.23;;;17.90;99.90;;;;;;4991844;28;20475;-66
2022/07/18 04:57:14;;;;;;;3.77;3.60;;;17.90;99.90;;;;;;4990905;28;20720;-66
2022/07/18 04:59:41;;;;;;;3.87;3.77;;;18.30;99.90;;;;;;4993478;28;20495;-67
2022/07/18 05:02:08;;;;;;;4.23;3.93;;;18.50;99.90;;;;;;4985950;28;20491;-65
2022/07/18 05:04:35;;;;;;;9.57;3.70;;;18.50;99.90;;;;;;4992378;28;20467;-69
2022/07/18 05:07:01;;;;;;;3.57;3.40;;;18.80;99.90;;;;;;4990196;28;20483;-66
2022/07/18 05:09:29;;;;;;;4.37;4.07;;;19.20;99.90;;;;;;4994050;28;20530;-67
2022/07/18 05:11:56;;;;;;;4.03;3.87;;;19.00;99.90;;;;;;4987145;28;20566;-66
2022/07/18 05:14:23;;;;;;;3.83;3.63;;;18.80;99.90;;;;;;4991551;28;20472;-65
2022/07/18 05:16:51;;;;;;;4.10;3.83;;;19.10;99.90;;;;;;4991664;28;20471;-65
2022/07/18 05:19:17;;;;;;;4.07;3.60;;;19.30;99.90;;;;;;4993737;28;20484;-64
2022/07/18 05:21:44;;;;;;;4.83;4.63;;;19.00;99.90;;;;;;4990440;28;20495;-65
2022/07/18 05:24:13;;;;;;;3.63;3.43;;;19.00;99.90;;;;;;4993365;28;20468;-65
2022/07/18 05:26:40;;;;;;;4.40;3.87;;;19.40;99.90;;;;;;4986246;28;20515;-65
2022/07/18 05:29:07;;;;;;;3.73;3.53;;;20.10;99.90;;;;;;4993559;28;20547;-64
2022/07/18 05:31:34;;;;;;;4.00;3.27;;;20.80;99.90;;;;;;4989191;28;20502;-65
2022/07/18 05:34:00;;;;;;;3.63;3.33;;;20.90;99.90;;;;;;4987493;28;20936;-66
2022/07/18 05:36:27;;;;;;;3.40;3.30;;;21.20;99.90;;;;;;4985427;28;20542;-67
2022/07/18 05:38:54;;;;;;;3.60;3.50;;;21.70;99.90;;;;;;4987061;28;20490;-65
2022/07/18 05:41:20;;;;;;;3.40;3.30;;;22.00;99.90;;;;;;4991956;28;20487;-64
2022/07/18 05:43:48;;;;;;;4.50;4.20;;;21.70;99.90;;;;;;4986973;28;20521;-65
2022/07/18 05:46:15;;;;;;;3.40;3.30;;;21.50;99.90;;;;;;4990121;28;20525;-66
2022/07/18 05:48:42;;;;;;;3.73;3.53;;;21.40;99.90;;;;;;4993572;28;20466;-65
2022/07/18 05:51:08;;;;;;;3.50;3.40;;;21.40;99.90;;;;;;4992091;28;21023;-65
2022/07/18 05:53:35;;;;;;;7.53;3.17;;;21.20;99.90;;;;;;4992436;28;20510;-68
2022/07/18 05:56:02;;;;;;;3.57;3.47;;;20.80;99.90;;;;;;4987796;28;20681;-65
2022/07/18 05:58:28;;;;;;;4.17;3.97;;;20.60;99.90;;;;;;4992939;28;20475;-64
2022/07/18 06:00:56;;;;;;;3.20;3.00;;;20.40;99.90;;;;;;4989156;28;20985;-66
2022/07/18 06:03:23;;;;;;;3.77;3.67;;;20.30;99.90;;;;;;4992330;28;20699;-65
2022/07/18 06:05:50;;;;;;;3.43;3.33;;;20.20;99.90;;;;;;4986923;28;20478;-66
2022/07/18 06:08:17;;;;;;;3.60;3.50;;;20.30;99.90;;;;;;4991996;28;20461;-65
2022/07/18 06:10:44;;;;;;;3.50;3.40;;;20.30;99.90;;;;;;4987831;28;20556;-66
2022/07/18 06:13:10;;;;;;;3.83;3.53;;;20.40;99.90;;;;;;4988794;28;20468;-65
2022/07/18 06:15:37;;;;;;;3.83;3.63;;;20.30;99.90;;;;;;4986499;28;20481;-65
2022/07/18 06:18:05;;;;;;;3.70;3.60;;;20.30;99.90;;;;;;4991140;28;20508;-66
2022/07/18 06:20:32;;;;;;;3.70;3.60;;;20.40;99.90;;;;;;4989532;28;20493;-66
2022/07/18 06:22:58;;;;;;;3.37;3.17;;;20.50;99.90;;;;;;4985534;28;20468;-66
2022/07/18 06:25:25;;;;;;;4.60;3.20;;;20.80;99.90;;;;;;4991964;28;20934;-65
2022/07/18 06:27:52;;;;;;;3.80;3.43;;;21.60;99.90;;;;;;4990925;28;20570;-67
2022/07/18 06:30:18;;;;;;;3.27;3.10;;;22.50;99.90;;;;;;4992100;28;20566;-66
2022/07/18 06:32:45;;;;;;;3.33;3.23;;;23.50;99.90;;;;;;4988186;28;20506;-64
2022/07/18 06:35:13;;;;;;;3.40;3.10;;;24.20;99.90;;;;;;4992090;28;21177;-64
2022/07/18 06:37:40;;;;;;;3.00;2.90;;;24.40;99.90;;;;;;4989611;28;21002;-65
2022/07/18 06:40:08;;;;;;;3.13;3.03;;;24.70;99.90;;;;;;4989568;28;20491;-65
2022/07/18 06:42:35;;;;;;;3.10;2.90;;;25.10;99.90;;;;;;4986856;28;20491;-66
2022/07/18 06:45:02;;;;;;;3.53;3.20;;;25.90;99.90;;;;;;4986285;28;20477;-64
2022/07/18 06:47:29;;;;;;;2.90;2.80;;;26.20;99.90;;;;;;4990836;28;20540;-65
2022/07/18 06:49:56;;;;;;;3.20;3.10;;;26.20;99.90;;;;;;4990347;28;21008;-64
2022/07/18 06:52:24;;;;;;;2.60;2.50;;;25.60;99.90;;;;;;4990599;28;21005;-65
2022/07/18 06:54:50;;;;;;;3.53;3.23;;;25.20;99.90;;;;;;4991423;28;20948;-67
2022/07/18 06:57:20;;;;;;;3.00;2.90;;;24.70;99.90;;;;;;4982008;28;20468;-65
2022/07/18 06:59:46;;;;;;;2.73;2.60;;;24.60;99.90;;;;;;4984586;28;20823;-65
2022/07/18 07:02:13;;;;;;;3.00;2.90;;;24.30;99.90;;;;;;4990773;28;20487;-67
2022/07/18 07:04:40;;;;;;;3.43;3.23;;;24.30;99.90;;;;;;4990036;28;20490;-65
2022/07/18 07:07:06;;;;;;;2.70;2.70;;;24.30;99.90;;;;;;4990508;28;20545;-65
2022/07/18 07:09:34;;;;;;;2.50;2.50;;;24.00;99.90;;;;;;4991484;28;20477;-66
2022/07/18 07:12:01;;;;;;;2.70;2.60;;;24.30;99.90;;;;;;4991609;28;20502;-66
2022/07/18 07:14:28;;;;;;;5.30;2.70;;;24.70;99.90;;;;;;4989047;28;20475;-64
2022/07/18 07:16:54;;;;;;;3.10;2.90;;;24.80;99.90;;;;;;4983054;28;20464;-64
2022/07/18 07:19:21;;;;;;;2.97;2.87;;;25.20;99.90;;;;;;4991444;28;20879;-65
2022/07/18 07:21:48;;;;;;;3.10;2.90;;;25.60;99.90;;;;;;4986999;28;21072;-65
2022/07/18 07:24:14;;;;;;;3.23;3.13;;;25.80;99.90;;;;;;4989274;28;20847;-68
2022/07/18 07:26:42;;;;;;;3.23;3.13;;;26.10;99.90;;;;;;4988381;28;20472;-65
2022/07/18 07:29:09;;;;;;;2.53;2.30;;;26.10;99.90;;;;;;4986791;28;20463;-64
2022/07/18 07:31:36;;;;;;;2.40;2.40;;;26.60;99.90;;;;;;4990121;28;20981;-66
2022/07/18 07:34:03;;;;;;;3.40;3.30;;;27.00;99.90;;;;;;4990485;28;20479;-64
2022/07/18 07:36:30;;;;;;;3.07;2.87;;;27.50;99.90;;;;;;4983043;28;20467;-65
2022/07/18 07:38:57;;;;;;;2.87;2.77;;;27.40;99.90;;;;;;4989503;28;20490;-65
2022/07/18 07:41:23;;;;;;;3.43;3.27;;;27.70;99.90;;;;;;4989765;28;20544;-65
2022/07/18 07:43:51;;;;;;;3.40;3.20;;;27.70;98.80;;;;;;4989824;28;20919;-64
2022/07/18 07:46:18;;;;;;;3.40;3.30;;;27.50;99.10;;;;;;4990750;28;20468;-65
2022/07/18 07:48:47;;;;;;;3.47;3.37;;;27.00;98.30;;;;;;4990278;28;20492;-65
2022/07/18 07:51:14;;;;;;;3.30;3.07;;;26.60;98.90;;;;;;4990487;28;20487;-66
2022/07/18 07:53:41;;;;;;;4.03;3.83;;;26.50;99.70;;;;;;4988179;28;20473;-64
2022/07/18 07:56:07;;;;;;;3.93;3.73;;;26.20;99.70;;;;;;4991640;28;20456;-65
2022/07/18 07:58:34;;;;;;;3.60;3.30;;;26.40;99.90;;;;;;4986795;28;20469;-66
2022/07/18 08:01:02;;;;;;;3.60;3.40;;;26.50;99.60;;;;;;4989667;28;20502;-66
2022/07/18 08:03:29;;;;;;;3.73;3.60;;;26.50;99.30;;;;;;4981594;28;20966;-65
2022/07/18 08:05:56;;;;;;;4.53;4.33;;;26.50;99.40;;;;;;4989554;28;20462;-66
2022/07/18 08:08:25;;;;;;;4.30;4.10;;;26.50;98.60;;;;;;4988286;28;20471;-64
2022/07/18 08:10:53;;;;;;;5.20;4.80;;;26.50;97.90;;;;;;4988449;28;20531;-67
2022/07/18 08:13:19;;;;;;;5.13;4.83;;;26.40;97.90;;;;;;4984892;28;22000;-65
2022/07/18 08:15:46;;;;;;;4.70;4.40;;;26.50;97.80;;;;;;4983479;28;20976;-65
2022/07/18 08:18:14;;;;;;;4.90;4.70;;;26.70;97.30;;;;;;4985522;28;20860;-66
2022/07/18 08:20:41;;;;;;;6.00;5.60;;;27.10;96.60;;;;;;4978968;28;20553;-66
2022/07/18 08:23:09;;;;;;;6.13;5.67;;;27.50;96.00;;;;;;4989513;28;20494;-65
2022/07/18 08:25:37;;;;;;;4.47;4.17;;;27.80;95.80;;;;;;4986984;28;20461;-65
2022/07/18 08:28:05;;;;;;;5.43;5.20;;;28.10;95.00;;;;;;4984714;28;20532;-66
2022/07/18 08:30:32;;;;;;;4.87;4.60;;;27.80;93.70;;;;;;4988481;28;22247;-64
2022/07/18 08:33:00;;;;;;;5.03;4.73;;;27.00;94.70;;;;;;4986845;28;20521;-66
2022/07/18 08:35:30;;;;;;;4.80;4.50;;;26.60;95.90;;;;;;4988913;28;20500;-65
2022/07/18 08:37:56;;;;;;;5.50;5.20;;;26.70;95.60;;;;;;4988199;28;20474;-65
2022/07/18 08:40:23;;;;;;;4.83;4.60;;;26.70;95.10;;;;;;4989630;28;20979;-65
2022/07/18 08:42:52;;;;;;;5.57;5.07;;;26.70;95.60;;;;;;4984393;28;20832;-65
2022/07/18 08:45:21;;;;;;;5.87;5.47;;;26.60;94.30;;;;;;4989700;28;20464;-65
2022/07/18 08:47:49;;;;;;;5.70;5.30;;;26.50;93.90;;;;;;4988592;28;20943;-65
2022/07/18 08:50:16;;;;;;;5.37;5.00;;;26.50;94.00;;;;;;4989754;28;20930;-66
2022/07/18 08:52:45;;;;;;;5.20;4.90;;;26.80;95.10;;;;;;4985028;28;20468;-65
2022/07/18 08:55:12;;;;;;;5.10;4.80;;;26.90;94.40;;;;;;4986786;28;20822;-66
2022/07/18 08:57:39;;;;;;;5.40;5.10;;;27.20;93.50;;;;;;4982126;28;20464;-65
2022/07/18 09:00:07;;;;;;;5.13;4.83;;;26.90;93.40;;;;;;4982102;28;20482;-65
2022/07/18 09:02:34;;;;;;;5.07;4.77;;;26.60;93.50;;;;;;4987628;28;20495;-67
2022/07/18 09:05:02;;;;;;;4.70;4.50;;;26.30;94.10;;;;;;4989771;28;20459;-66
2022/07/18 09:07:31;;;;;;;5.20;4.80;;;26.30;94.80;;;;;;4986584;28;20936;-65
2022/07/18 09:10:00;;;;;;;4.40;4.20;;;26.50;94.50;;;;;;4991516;28;20459;-65
2022/07/18 09:12:29;;;;;;;4.50;4.20;;;26.60;95.10;;;;;;4993161;28;20479;-65
2022/07/18 09:14:56;;;;;;;4.40;4.20;;;26.70;94.80;;;;;;4992855;28;20882;-65
2022/07/18 09:17:24;;;;;;;4.03;3.90;;;26.60;94.40;;;;;;4982515;28;20940;-66
2022/07/18 09:19:59;;;;;;;4.83;4.57;;;26.60;94.60;;;;;;4979438;28;20814;-66
2022/07/18 09:22:27;;;;;;;3.90;3.70;;;26.40;94.00;;;;;;4991535;28;20483;-65
2022/07/18 09:25:01;;;;;;;3.90;3.70;;;26.20;95.30;;;;;;4993154;28;20464;-65
2022/07/18 09:27:31;;;;;;;4.20;3.90;;;26.30;94.80;;;;;;4982203;28;20550;-65
2022/07/18 09:30:26;;;;;;;3.83;3.73;;;26.40;95.50;;;;;;4992708;28;20495;-65
2022/07/18 09:32:55;;;;;;;4.93;4.63;;;26.10;95.50;;;;;;4983585;28;20531;-64
2022/07/18 09:35:26;;;;;;;4.30;4.00;;;26.00;95.60;;;;;;4992194;28;20467;-65
2022/07/18 09:37:59;;;;;;;4.23;4.03;;;26.10;95.90;;;;;;4990649;28;20521;-67
2022/07/18 09:40:30;;;;;;;5.20;4.70;;;26.30;95.40;;;;;;4992734;28;20482;-65
2022/07/18 09:42:58;;;;;;;4.60;4.33;;;26.30;94.50;;;;;;4992540;28;20954;-66
2022/07/18 09:45:28;;;;;;;4.30;4.10;;;26.50;94.80;;;;;;4993250;28;20490;-67
2022/07/18 09:47:57;;;;;;;5.30;5.10;;;26.70;94.50;;;;;;4991214;28;20947;-65
2022/07/18 09:50:29;;;;;;;5.30;4.97;;;26.90;94.40;;;;;;4993376;28;20456;-65
2022/07/18 09:53:08;;;;;;;5.10;4.90;;;27.00;94.10;;;;;;4992240;28;20498;-66
2022/07/18 09:55:41;;;;;;;4.90;4.60;;;26.90;94.20;;;;;;4992632;28;20537;-65
2022/07/18 09:58:09;;;;;;;5.20;4.90;;;26.60;93.90;;;;;;4989905;28;20471;-66
2022/07/18 10:00:38;;;;;;;4.93;4.67;;;26.40;94.40;;;;;;4991672;28;20491;-66
2022/07/18 10:03:06;;;;;;;5.60;4.97;;;26.30;94.50;;;;;;4992357;28;20518;-65
2022/07/18 10:05:35;;;;;;;5.10;4.80;;;26.40;94.50;;;;;;4994355;28;20859;-65
2022/07/18 10:08:04;;;;;;;5.67;5.37;;;26.50;94.70;;;;;;4991996;28;20471;-67
2022/07/18 10:10:31;;;;;;;5.60;5.10;;;26.50;93.70;;;;;;4983394;28;20467;-65
2022/07/18 10:13:02;;;;;;;5.07;4.73;;;26.60;94.00;;;;;;4991137;28;21055;-66
2022/07/18 10:15:31;;;;;;;5.57;5.17;;;26.80;93.80;;;;;;4987901;28;20541;-66
2022/07/18 10:17:58;;;;;;;5.50;5.10;;;27.00;93.40;;;;;;4990044;28;20471;-66
2022/07/18 10:20:28;;;;;;;4.73;4.50;;;27.30;93.80;;;;;;5013921;22;20505;-70
2022/07/18 10:22:58;;;;;;;5.37;5.07;;;27.50;92.60;;;;;;5011943;28;20512;-73
2022/07/18 10:25:25;;;;;;;4.87;4.67;;;27.50;92.80;;;;;;5013032;28;20537;-72
2022/07/18 10:27:55;;;;;;;4.80;4.50;;;27.40;92.90;;;;;;5011998;28;20841;-72
2022/07/18 10:30:33;;;;;;;5.00;4.70;;;27.70;93.20;;;;;;5004650;28;20478;-72
2022/07/18 10:33:00;;;;;;;4.80;4.60;;;28.10;93.40;;;;;;5012033;28;20458;-73
2022/07/18 10:35:59;;;;;;;5.90;5.60;;;28.30;91.70;;;;;;5003817;28;20818;-72
2022/07/18 10:38:26;;;;;;;4.90;4.70;;;28.40;90.90;;;;;;5009710;28;20475;-72
2022/07/18 10:41:14;;;;;;;4.73;4.53;;;28.50;90.60;;;;;;5009925;28;20520;-72
2022/07/18 10:43:43;;;;;;;4.60;4.33;;;28.40;90.80;;;;;;5000462;28;20466;-69
2022/07/18 10:46:12;;;;;;;4.93;4.63;;;28.30;90.80;;;;;;5003894;28;20477;-72
2022/07/18 10:48:56;;;;;;;5.63;5.30;;;28.20;91.00;;;;;;5010499;28;20466;-70
2022/07/18 10:51:34;;;;;;;4.83;4.63;;;28.20;90.40;;;;;;5011504;28;20486;-70
2022/07/18 10:54:14;;;;;;;4.80;4.53;;;28.20;90.60;;;;;;5006181;28;20475;-74
2022/07/18 10:57:07;;;;;;;4.37;4.07;;;28.10;90.50;;;;;;5003275;28;20478;-74
2022/07/18 10:59:35;;;;;;;4.07;3.73;;;28.20;90.80;;;;;;5009981;28;20550;-72
2022/07/18 11:02:06;;;;;;;4.57;4.20;;;27.80;90.70;;;;;;5004639;28;20499;-72
2022/07/18 11:04:37;;;;;;;4.03;3.73;;;27.80;91.00;;;;;;5009505;28;20501;-74
2022/07/18 11:07:06;;;;;;;3.67;3.40;;;27.90;91.80;;;;;;5003188;28;20482;-72
2022/07/18 11:09:37;;;;;;;4.20;3.83;;;28.00;91.10;;;;;;5005710;28;20470;-72
2022/07/18 11:12:34;;;;;;;4.17;3.97;;;27.80;91.00;;;;;;5012864;28;20465;-71
2022/07/18 11:15:07;;;;;;;3.50;3.40;;;27.60;91.20;;;;;;5009584;28;20458;-72
2022/07/18 11:18:01;;;;;;;3.70;3.50;;;27.70;91.10;;;;;;5013558;28;20858;-72
2022/07/18 11:20:41;;;;;;;3.60;3.27;;;27.80;91.30;;;;;;5009094;28;20499;-73
2022/07/18 11:23:21;;;;;;;3.70;3.50;;;28.10;91.00;;;;;;5011203;28;20473;-73
2022/07/18 11:25:49;;;;;;;3.33;3.10;;;28.10;90.50;;;;;;5012991;28;20525;-73
2022/07/18 11:28:17;;;;;;;3.77;3.40;;;28.10;90.20;;;;;;5010771;28;20466;-71
2022/07/18 11:30:44;;;;;;;3.70;3.50;;;28.00;90.00;;;;;;5011871;28;20490;-72
2022/07/18 11:33:25;;;;;;;3.90;3.70;;;27.80;89.50;;;;;;5009968;28;20458;-73
2022/07/18 11:35:53;;;;;;;3.67;3.57;;;27.80;90.50;;;;;;5012358;28;20459;-73
2022/07/18 11:38:20;;;;;;;3.87;3.60;;;27.90;90.00;;;;;;5007848;28;20466;-72
2022/07/18 11:40:48;;;;;;;3.43;3.23;;;27.80;90.50;;;;;;5011736;28;20540;-70
2022/07/18 11:43:21;;;;;;;3.37;3.17;;;28.10;90.60;;;;;;5008838;28;20466;-72
2022/07/18 11:45:47;;;;;;;3.00;2.90;;;28.40;90.20;;;;;;5002327;28;20529;-72
2022/07/18 11:48:23;;;;;;;3.10;3.00;;;28.80;90.20;;;;;;5006588;28;20475;-69
2022/07/18 11:50:50;;;;;;;3.47;3.37;;;29.10;89.10;;;;;;5010106;28;20972;-73
2022/07/18 11:53:17;;;;;;;3.63;3.53;;;29.30;88.30;;;;;;5006244;28;20463;-72
2022/07/18 11:55:44;;;;;;;3.77;3.57;;;29.20;85.80;;;;;;5010214;28;20470;-73
2022/07/18 11:58:12;;;;;;;3.63;3.47;;;29.10;84.80;;;;;;5011028;28;20482;-70
2022/07/18 12:00:39;;;;;;;3.27;3.07;;;29.00;87.10;;;;;;5009348;28;20506;-70
2022/07/18 12:03:12;;;;;;;3.37;3.20;;;29.00;85.80;;;;;;5010436;28;20815;-72
2022/07/18 12:05:42;;;;;;;3.80;3.55;;;28.90;86.50;;;;;;5005831;28;20458;-72
2022/07/18 12:08:32;;;;;;;3.93;3.40;;;29.00;85.60;;;;;;5010102;28;20214;-72
2022/07/18 12:11:17;;;;;;;3.53;3.40;;;29.00;87.60;;;;;;4998813;28;20486;-70
2022/07/18 12:13:46;;;;;;;3.10;3.00;;;29.00;85.30;;;;;;5007812;28;20462;-71
2022/07/18 12:16:33;;;;;;;3.93;3.53;;;28.90;86.40;;;;;;5010913;28;20466;-73
2022/07/18 12:19:07;;;;;;;3.53;3.43;;;28.80;84.60;;;;;;5006947;28;20466;-71
2022/07/18 12:21:47;;;;;;;3.87;3.57;;;28.70;85.10;;;;;;5005609;28;20494;-71
2022/07/18 12:24:29;;;;;;;3.83;3.63;;;28.60;85.30;;;;;;5007621;28;20473;-70
2022/07/18 12:27:19;;;;;;;3.17;3.07;;;28.60;84.80;;;;;;5013198;28;20489;-71
2022/07/18 12:30:12;;;;;;;2.97;2.87;;;28.70;85.40;;;;;;5012197;28;20497;-73
2022/07/18 12:32:44;;;;;;;2.87;2.60;;;28.80;84.60;;;;;;5012809;28;20501;-72
2022/07/18 12:35:13;;;;;;;2.93;2.90;;;28.90;83.70;;;;;;4996277;28;20521;-72
2022/07/18 12:37:41;;;;;;;3.00;2.80;;;29.00;84.60;;;;;;5004531;28;20474;-72
2022/07/18 12:40:11;;;;;;;6.50;4.93;;;29.20;85.00;;;;;;5007127;28;20513;-72
2022/07/18 12:42:40;;;;;;;71.07;38.77;;;29.40;84.80;;;;;;5004215;28;20537;-73
2022/07/18 12:45:08;;;;;;;15.93;10.93;;;29.60;83.30;;;;;;5012299;28;20458;-72
2022/07/18 12:47:35;;;;;;;3.40;3.20;;;29.70;82.80;;;;;;5014134;28;20473;-73
2022/07/18 12:50:03;;;;;;;2.90;2.80;;;29.70;81.10;;;;;;5011132;28;20486;-69
2022/07/18 12:52:30;;;;;;;3.80;3.60;;;29.70;81.20;;;;;;5013590;28;20949;-73
2022/07/18 12:54:58;;;;;;;3.00;2.90;;;29.70;81.30;;;;;;5013014;28;20553;-72
2022/07/18 12:57:25;;;;;;;6.87;4.43;;;29.70;81.30;;;;;;5012194;28;20586;-72
2022/07/18 12:59:52;;;;;;;3.40;3.30;;;29.70;81.40;;;;;;5002961;28;20489;-72
2022/07/18 13:02:19;;;;;;;6.07;4.63;;;29.60;81.50;;;;;;5009958;28;20501;-72
2022/07/18 13:04:46;;;;;;;3.47;2.97;;;29.50;81.60;;;;;;5014648;28;20465;-73
2022/07/18 13:07:13;;;;;;;2.30;2.20;;;29.40;80.90;;;;;;5011258;28;20573;-71
2022/07/18 13:09:40;;;;;;;2.63;2.53;;;29.40;79.60;;;;;;5013969;28;20470;-72
2022/07/18 13:12:08;;;;;;;2.57;2.40;;;29.30;81.60;;;;;;5013690;28;20463;-72
2022/07/18 13:14:35;;;;;;;2.70;2.60;;;29.40;81.70;;;;;;5012698;28;20958;-73
2022/07/18 13:17:02;;;;;;;3.00;2.80;;;29.50;80.40;;;;;;5010501;28;20508;-73
2022/07/18 13:19:29;;;;;;;5.33;3.83;;;29.50;80.60;;;;;;5010069;28;20465;-73
2022/07/18 13:21:58;;;;;;;5.03;4.53;;;29.60;82.00;;;;;;5010854;28;20521;-71
2022/07/18 13:24:25;;;;;;;2.17;2.17;;;29.70;81.20;;;;;;5011089;28;20467;-72
2022/07/18 13:26:52;;;;;;;5.33;3.03;;;29.60;78.40;;;;;;5010724;28;20557;-71
2022/07/18 13:29:20;;;;;;;4.13;3.53;;;29.60;79.60;;;;;;5012387;28;20462;-72
2022/07/18 13:31:48;;;;;;;4.00;3.50;;;29.60;80.90;;;;;;5006199;28;20478;-71
2022/07/18 13:34:14;;;;;;;2.33;2.23;;;29.70;80.10;;;;;;5008943;28;20521;-69
2022/07/18 13:36:41;;;;;;;3.50;2.20;;;29.70;79.00;;;;;;5013061;28;20585;-72
2022/07/18 13:39:08;;;;;;;2.00;1.90;;;29.80;77.80;;;;;;5009855;28;20516;-73
2022/07/18 13:41:34;;;;;;;1.90;1.80;;;29.90;78.10;;;;;;5013828;28;20490;-73
2022/07/18 13:44:01;;;;;;;2.20;2.10;;;30.00;78.10;;;;;;5011920;28;20500;-73
2022/07/18 13:46:29;;;;;;;2.33;2.23;;;30.20;77.50;;;;;;5013249;28;20462;-73
2022/07/18 13:48:56;;;;;;;2.37;2.20;;;30.30;78.20;;;;;;5012713;28;20467;-72
2022/07/18 13:51:22;;;;;;;2.10;2.10;;;30.40;76.70;;;;;;5013675;28;20486;-74
2022/07/18 13:53:49;;;;;;;2.50;2.30;;;30.50;74.90;;;;;;5011655;28;20474;-73
2022/07/18 13:56:16;;;;;;;2.37;1.43;;;30.50;75.10;;;;;;5011264;28;20956;-72
2022/07/18 13:58:42;;;;;;;2.10;1.90;;;30.50;73.80;;;;;;5012903;28;20458;-73
2022/07/18 14:01:09;;;;;;;2.20;2.20;;;30.60;74.60;;;;;;5013890;28;20479;-72
2022/07/18 14:03:37;;;;;;;1.57;1.50;;;30.60;74.70;;;;;;5013128;28;20928;-73
2022/07/18 14:06:04;;;;;;;1.87;1.73;;;30.60;71.90;;;;;;5013347;28;20466;-72
2022/07/18 14:08:31;;;;;;;1.63;1.63;;;30.50;70.10;;;;;;5012288;28;20932;-73
2022/07/18 14:10:57;;;;;;;1.70;1.60;;;30.40;69.30;;;;;;5005750;28;21007;-72
2022/07/18 14:13:24;;;;;;;2.03;1.93;;;30.30;69.70;;;;;;5008268;28;20470;-70
2022/07/18 14:15:51;;;;;;;1.70;1.70;;;30.30;69.80;;;;;;5012893;28;20566;-71
2022/07/18 14:18:17;;;;;;;1.80;1.70;;;30.30;70.40;;;;;;5012788;28;20898;-70
2022/07/18 14:20:46;;;;;;;1.57;1.50;;;30.30;70.10;;;;;;5015579;28;20755;-71
2022/07/18 14:23:12;;;;;;;1.80;1.70;;;30.20;69.20;;;;;;5010366;28;20479;-71
2022/07/18 14:25:39;;;;;;;2.13;1.93;;;30.20;69.30;;;;;;5013151;28;20490;-71
2022/07/18 14:28:06;;;;;;;1.50;1.50;;;30.30;70.10;;;;;;5012229;28;20474;-72
2022/07/18 14:30:33;;;;;;;2.40;2.30;;;30.30;70.40;;;;;;5010717;28;20998;-72
2022/07/18 14:33:00;;;;;;;2.50;2.30;;;30.40;72.00;;;;;;5010035;28;20489;-73
2022/07/18 14:35:26;;;;;;;1.80;1.70;;;30.50;71.00;;;;;;5012297;28;20463;-73
2022/07/18 14:37:54;;;;;;;1.70;1.60;;;30.50;70.60;;;;;;5011572;28;20946;-71
2022/07/18 14:40:21;;;;;;;4.00;2.63;;;30.50;70.50;;;;;;5012583;28;20540;-70
2022/07/18 14:42:48;;;;;;;1.87;1.87;;;30.50;71.40;;;;;;5010343;28;20560;-73
2022/07/18 14:45:14;;;;;;;2.37;2.17;;;30.50;71.20;;;;;;5012597;28;20458;-70
2022/07/18 14:47:42;;;;;;;3.53;2.87;;;30.50;72.00;;;;;;5011389;28;20478;-70
2022/07/18 14:50:10;;;;;;;2.43;2.33;;;30.40;71.50;;;;;;5012110;28;20582;-72
2022/07/18 14:52:37;;;;;;;2.73;2.30;;;30.40;71.20;;;;;;5009378;28;20501;-72
2022/07/18 14:55:06;;;;;;;2.20;1.80;;;30.40;72.00;;;;;;5012142;28;20454;-71
2022/07/18 14:57:33;;;;;;;2.10;2.00;;;30.40;70.80;;;;;;5011536;28;20820;-72
2022/07/18 15:00:00;;;;;;;2.00;1.90;;;30.40;70.20;;;;;;5008144;28;20510;-72
2022/07/18 15:02:27;;;;;;;2.33;2.33;;;30.50;70.20;;;;;;5009489;28;20985;-71
2022/07/18 15:04:54;;;;;;;1.93;1.83;;;30.60;69.80;;;;;;5012333;28;20470;-70
2022/07/18 15:07:20;;;;;;;2.10;2.00;;;30.60;68.40;;;;;;5010447;28;20493;-71
2022/07/18 15:09:47;;;;;;;2.03;2.03;;;30.70;69.40;;;;;;5012351;28;20495;-72
2022/07/18 15:12:16;;;;;;;1.67;1.67;;;30.60;68.00;;;;;;5009490;28;20796;-71
2022/07/18 15:14:42;;;;;;;2.77;2.57;;;30.60;68.20;;;;;;5004129;28;20546;-71
2022/07/18 15:17:09;;;;;;;1.60;1.60;;;30.60;67.70;;;;;;5010289;28;20474;-72
2022/07/18 15:19:36;;;;;;;1.80;1.80;;;30.60;68.30;;;;;;5009850;28;20475;-72
2022/07/18 15:22:05;;;;;;;2.33;2.23;;;30.50;67.20;;;;;;5010157;28;20544;-71
2022/07/18 15:24:31;;;;;;;2.13;1.80;;;30.50;68.40;;;;;;5010350;28;20470;-72
2022/07/18 15:26:58;;;;;;;2.53;1.80;;;30.60;68.50;;;;;;5011691;28;20486;-71
2022/07/18 15:29:26;;;;;;;2.93;2.50;;;30.80;67.80;;;;;;5010343;28;20543;-73
2022/07/18 15:31:53;;;;;;;2.00;2.00;;;30.90;67.20;;;;;;5003392;28;20553;-72
2022/07/18 15:34:20;;;;;;;2.00;2.00;;;31.10;66.20;;;;;;5008296;28;20819;-70
2022/07/18 15:36:47;;;;;;;2.00;1.90;;;31.20;67.40;;;;;;5007615;28;20824;-72
2022/07/18 15:39:14;;;;;;;2.60;2.30;;;31.40;66.20;;;;;;5011159;28;20832;-72
2022/07/18 15:41:40;;;;;;;2.30;2.23;;;31.50;64.80;;;;;;5007916;28;20564;-71
2022/07/18 15:44:09;;;;;;;2.37;2.27;;;31.60;63.10;;;;;;5009777;28;20819;-71
2022/07/18 15:46:38;;;;;;;1.80;1.80;;;31.60;63.10;;;;;;5010048;28;20543;-72
2022/07/18 15:49:05;;;;;;;2.37;2.37;;;31.60;64.00;;;;;;5010961;28;20473;-71
2022/07/18 15:51:31;;;;;;;2.20;2.20;;;31.60;61.90;;;;;;5009697;28;20509;-71
2022/07/18 15:53:58;;;;;;;2.20;2.20;;;31.70;62.70;;;;;;5010048;28;20466;-73
2022/07/18 15:56:25;;;;;;;6.00;3.43;;;31.60;62.30;;;;;;5008591;28;21341;-72
2022/07/18 15:58:52;;;;;;;2.90;2.60;;;31.60;63.00;;;;;;5000648;28;20478;-72
2022/07/18 16:01:20;;;;;;;2.80;2.60;;;31.60;62.10;;;;;;5009066;28;20532;-74
2022/07/18 16:03:48;;;;;;;2.20;2.20;;;31.60;63.30;;;;;;5002739;28;20471;-72
2022/07/18 16:06:15;;;;;;;2.33;2.30;;;31.60;62.60;;;;;;5006674;28;20836;-72
2022/07/18 16:08:42;;;;;;;3.23;3.13;;;31.50;61.60;;;;;;5010525;28;20465;-72
2022/07/18 16:11:08;;;;;;;2.40;2.30;;;31.50;60.90;;;;;;5009465;28;20892;-73
2022/07/18 16:13:35;;;;;;;2.20;2.20;;;31.30;60.20;;;;;;5010524;28;20984;-74
2022/07/18 16:16:02;;;;;;;3.20;2.00;;;31.20;60.20;;;;;;5008888;28;20521;-72
2022/07/18 16:18:28;;;;;;;2.10;2.10;;;31.20;60.90;;;;;;5011100;28;20509;-74
2022/07/18 16:20:56;;;;;;;2.43;2.33;;;31.30;61.30;;;;;;5011606;28;20501;-75
2022/07/18 16:23:23;;;;;;;2.80;2.80;;;31.20;59.60;;;;;;5012788;28;20494;-73
2022/07/18 16:25:50;;;;;;;2.30;2.20;;;31.20;60.60;;;;;;5013034;28;20471;-72
2022/07/18 16:28:17;;;;;;;3.33;2.77;;;31.10;61.70;;;;;;5012724;28;20486;-73
2022/07/18 16:30:44;;;;;;;2.70;2.60;;;31.00;63.00;;;;;;5028219;22;20482;-70
2022/07/18 16:33:10;;;;;;;3.30;3.10;;;31.00;64.00;;;;;;5007597;28;20872;-67
2022/07/18 16:35:37;;;;;;;2.70;2.60;;;30.80;64.00;;;;;;5010071;28;20473;-68
2022/07/18 16:38:05;;;;;;;3.40;3.20;;;30.60;63.90;;;;;;5007334;28;20481;-67
2022/07/18 16:40:32;;;;;;;2.73;2.63;;;30.60;65.10;;;;;;5009032;28;20494;-68
2022/07/18 16:43:00;;;;;;;3.07;2.90;;;30.50;64.60;;;;;;4991369;28;20586;-67
2022/07/18 16:45:27;;;;;;;2.90;2.80;;;30.40;64.40;;;;;;4992964;28;20521;-67
2022/07/18 16:47:54;;;;;;;2.67;2.60;;;30.30;64.50;;;;;;4989152;28;20471;-69
2022/07/18 16:50:21;;;;;;;3.30;3.20;;;30.20;64.30;;;;;;4989102;28;20566;-68
2022/07/18 16:52:48;;;;;;;3.03;2.93;;;30.10;64.60;;;;;;4989151;28;20487;-68